createdAt,value
2022-08-21T00:01:38.498Z,99.90
2022-08-21T00:04:10.157Z,99.90
2022-08-21T00:06:38.486Z,99.90
2022-08-21T00:09:08.621Z,99.90
2022-08-21T00:11:36.743Z,99.90
2022-08-21T00:14:05.874Z,99.90
2022-08-21T00:16:32.942Z,99.90
2022-08-21T00:18:59.866Z,99.90
2022-08-21T00:21:27.154Z,99.90
2022-08-21T00:23:54.007Z,99.90
2022-08-21T00:26:20.903Z,99.90
2022-08-21T00:28:49.842Z,99.90
2022-08-21T00:31:17.355Z,99.90
2022-08-21T00:33:45.009Z,99.90
2022-08-21T00:36:12.277Z,99.90
2022-08-21T00:38:39.261Z,99.90
2022-08-21T00:41:21.161Z,99.90
2022-08-21T00:43:56.205Z,99.90
2022-08-21T00:46:28.088Z,99.90
2022-08-21T00:48:57.301Z,99.90
2022-08-21T00:51:40.277Z,99.90
2022-08-21T00:54:13.621Z,99.90
2022-08-21T00:56:48.976Z,99.90
2022-08-21T00:59:17.977Z,99.90
2022-08-21T01:01:44.850Z,99.90
2022-08-21T01:04:13.035Z,99.90
2022-08-21T01:06:39.905Z,99.90
2022-08-21T01:09:06.732Z,99.90
2022-08-21T01:11:33.543Z,99.90
2022-08-21T01:14:00.975Z,99.90
2022-08-21T01:16:28.045Z,99.90
2022-08-21T01:18:54.993Z,99.90
2022-08-21T01:21:28.254Z,99.90
2022-08-21T01:23:56.820Z,99.90
2022-08-21T01:26:35.692Z,99.90
2022-08-21T01:29:31.283Z,99.90
2022-08-21T01:31:59.501Z,99.90
2022-08-21T01:34:26.381Z,99.90
2022-08-21T01:36:53.438Z,99.90
2022-08-21T01:39:20.681Z,99.90
2022-08-21T01:41:47.479Z,99.90
2022-08-21T01:44:14.346Z,99.90
2022-08-21T01:46:41.217Z,99.90
2022-08-21T01:49:08.556Z,99.90
2022-08-21T01:51:35.396Z,99.90
2022-08-21T01:54:02.288Z,99.90
2022-08-21T01:56:29.137Z,99.90
2022-08-21T01:58:56.048Z,99.90
2022-08-21T02:01:22.913Z,99.90
2022-08-21T02:03:49.771Z,99.90
2022-08-21T02:06:19.271Z,99.90
2022-08-21T02:08:47.216Z,99.90
2022-08-21T02:11:14.172Z,99.90
2022-08-21T02:13:41.137Z,99.90
2022-08-21T02:16:09.049Z,99.90
2022-08-21T02:18:36.269Z,99.90
2022-08-21T02:21:04.572Z,99.90
2022-08-21T02:23:32.215Z,99.90
2022-08-21T02:26:00.825Z,99.90
2022-08-21T02:28:28.171Z,99.90
2022-08-21T02:30:56.880Z,99.90
2022-08-21T02:33:25.512Z,99.90
2022-08-21T02:35:53.423Z,99.90
2022-08-21T02:38:25.412Z,99.90
2022-08-21T02:40:53.505Z,99.90
2022-08-21T02:43:22.944Z,99.90
2022-08-21T02:45:51.416Z,99.90
2022-08-21T02:48:21.217Z,99.90
2022-08-21T02:50:53.433Z,99.90
2022-08-21T02:53:20.870Z,99.90
2022-08-21T02:55:50.870Z,99.90
2022-08-21T02:58:24.285Z,99.90
2022-08-21T03:00:52.190Z,99.90
2022-08-21T03:03:19.181Z,99.90
2022-08-21T03:05:46.033Z,99.90
2022-08-21T03:08:15.370Z,99.90
2022-08-21T03:10:45.957Z,99.90
2022-08-21T03:13:13.055Z,99.90
2022-08-21T03:15:41.043Z,99.90
2022-08-21T03:18:08.926Z,99.90
2022-08-21T03:20:37.729Z,99.90
2022-08-21T03:23:07.702Z,99.90
2022-08-21T03:25:41.165Z,99.90
2022-08-21T03:28:17.331Z,99.90
2022-08-21T03:30:45.983Z,99.90
2022-08-21T03:33:15.164Z,99.90
2022-08-21T03:35:45.044Z,99.90
2022-08-21T03:38:13.973Z,99.90
2022-08-21T03:40:42.352Z,99.90
2022-08-21T03:43:10.579Z,99.90
2022-08-21T03:45:38.860Z,99.90
2022-08-21T03:48:07.641Z,99.90
2022-08-21T03:50:40.719Z,99.90
2022-08-21T03:53:16.840Z,99.90
2022-08-21T03:55:46.750Z,99.90
2022-08-21T03:58:16.058Z,99.90
2022-08-21T04:00:44.446Z,99.90
2022-08-21T04:03:11.193Z,99.90
2022-08-21T04:05:38.517Z,99.90
2022-08-21T04:08:06.875Z,99.90
2022-08-21T04:10:36.747Z,99.90
2022-08-21T04:13:04.441Z,99.90
2022-08-21T04:15:31.627Z,99.90
2022-08-21T04:17:58.404Z,99.90
2022-08-21T04:20:26.059Z,99.90
2022-08-21T04:22:53.154Z,99.90
2022-08-21T04:25:22.667Z,99.90
2022-08-21T04:27:50.276Z,99.90
2022-08-21T04:30:17.745Z,99.90
2022-08-21T04:32:50.017Z,99.90
2022-08-21T04:35:21.503Z,99.90
2022-08-21T04:37:48.814Z,99.90
2022-08-21T04:40:19.162Z,99.90
2022-08-21T04:42:52.236Z,99.90
2022-08-21T04:45:25.168Z,99.90
2022-08-21T04:47:53.596Z,99.90
2022-08-21T04:50:23.208Z,99.90
2022-08-21T04:52:50.114Z,99.90
2022-08-21T04:55:18.923Z,99.90
2022-08-21T04:57:49.014Z,99.90
2022-08-21T05:00:19.494Z,99.90
2022-08-21T05:02:48.716Z,99.90
2022-08-21T05:05:17.035Z,99.90
2022-08-21T05:07:44.931Z,99.90
2022-08-21T05:10:13.870Z,99.90
2022-08-21T05:12:42.922Z,99.90
2022-08-21T05:15:13.497Z,99.90
2022-08-21T05:17:42.291Z,99.90
2022-08-21T05:20:11.525Z,99.90
2022-08-21T05:22:39.175Z,99.90
2022-08-21T05:25:10.512Z,99.90
2022-08-21T05:27:39.123Z,99.90
2022-08-21T05:30:08.728Z,99.90
2022-08-21T05:32:36.178Z,99.90
2022-08-21T05:35:04.836Z,99.90
2022-08-21T05:37:31.649Z,99.90
2022-08-21T05:40:21.805Z,99.90
2022-08-21T05:42:45.592Z,99.90
2022-08-21T05:45:42.625Z,99.90
2022-08-21T05:48:12.299Z,99.90
2022-08-21T05:50:39.339Z,99.90
2022-08-21T05:53:07.982Z,99.90
2022-08-21T05:55:36.459Z,99.90
2022-08-21T05:58:03.725Z,99.90
2022-08-21T06:00:30.849Z,99.90
2022-08-21T06:02:57.915Z,99.90
2022-08-21T06:05:37.092Z,99.90
2022-08-21T06:08:05.069Z,99.90
2022-08-21T06:10:32.283Z,99.90
2022-08-21T06:12:59.360Z,99.90
2022-08-21T06:15:26.510Z,99.90
2022-08-21T06:17:54.478Z,99.90
2022-08-21T06:20:22.156Z,99.90
2022-08-21T06:22:48.950Z,99.90
2022-08-21T06:25:15.772Z,99.90
2022-08-21T06:27:42.539Z,99.90
2022-08-21T06:30:09.965Z,99.90
2022-08-21T06:32:37.403Z,99.90
2022-08-21T06:35:05.207Z,99.90
2022-08-21T06:37:32.402Z,99.90
2022-08-21T06:39:59.317Z,99.90
2022-08-21T06:42:28.839Z,99.90
2022-08-21T06:44:55.828Z,96.00
2022-08-21T06:47:22.984Z,98.60
2022-08-21T06:49:50.057Z,97.70
2022-08-21T06:52:16.954Z,96.80
2022-08-21T06:54:43.922Z,97.40
2022-08-21T06:57:10.812Z,96.20
2022-08-21T06:59:37.651Z,93.60
2022-08-21T07:02:04.973Z,95.20
2022-08-21T07:04:31.816Z,94.00
2022-08-21T07:06:58.643Z,93.80
2022-08-21T07:09:25.477Z,91.70
2022-08-21T07:11:55.127Z,88.30
2022-08-21T07:14:22.450Z,90.50
2022-08-21T07:16:51.762Z,91.50
2022-08-21T07:19:19.486Z,88.60
2022-08-21T07:21:46.385Z,88.60
2022-08-21T07:24:13.945Z,87.70
2022-08-21T07:26:41.456Z,87.00
2022-08-21T07:29:08.249Z,84.80
2022-08-21T07:31:35.044Z,81.90
2022-08-21T07:34:01.798Z,73.60
2022-08-21T07:36:28.544Z,78.40
2022-08-21T07:38:55.459Z,79.10
2022-08-21T07:41:26.343Z,78.40
2022-08-21T07:43:53.440Z,75.50
2022-08-21T07:46:20.736Z,76.80
2022-08-21T07:48:47.782Z,76.90
2022-08-21T07:51:16.222Z,80.80
2022-08-21T07:53:43.739Z,80.60
2022-08-21T07:56:12.109Z,83.50
2022-08-21T07:58:39.085Z,81.20
2022-08-21T08:01:07.499Z,74.30
2022-08-21T08:03:34.815Z,72.90
2022-08-21T08:06:01.898Z,72.70
2022-08-21T08:08:29.433Z,71.50
2022-08-21T08:10:58.164Z,70.70
2022-08-21T08:13:25.716Z,69.80
2022-08-21T08:15:52.989Z,67.60
2022-08-21T08:18:20.010Z,68.50
2022-08-21T08:20:46.790Z,68.60
2022-08-21T08:23:15.173Z,68.90
2022-08-21T08:25:42.331Z,72.70
2022-08-21T08:28:17.011Z,68.20
2022-08-21T08:30:46.377Z,71.70
2022-08-21T08:33:13.737Z,69.80
2022-08-21T08:35:41.370Z,67.50
2022-08-21T08:38:09.435Z,67.80
2022-08-21T08:41:01.164Z,73.50
2022-08-21T08:43:34.743Z,69.10
2022-08-21T08:46:05.888Z,73.40
2022-08-21T08:48:54.694Z,70.10
2022-08-21T08:51:56.356Z,63.00
2022-08-21T08:54:38.643Z,63.80
2022-08-21T08:57:10.596Z,63.40
2022-08-21T08:59:44.071Z,62.50
2022-08-21T09:02:13.304Z,61.50
2022-08-21T09:04:40.741Z,58.60
2022-08-21T09:07:20.294Z,60.90
2022-08-21T09:10:03.598Z,59.90
2022-08-21T09:12:48.936Z,57.50
2022-08-21T09:15:32.995Z,57.80
2022-08-21T09:18:11.743Z,56.70
2022-08-21T09:21:13.292Z,53.10
2022-08-21T09:23:50.702Z,49.60
2022-08-21T09:26:20.999Z,46.40
2022-08-21T09:28:54.192Z,44.30
2022-08-21T09:31:26.245Z,42.30
2022-08-21T09:34:09.243Z,43.60
2022-08-21T09:36:41.406Z,41.60
2022-08-21T09:39:09.962Z,45.10
2022-08-21T09:41:37.920Z,44.40
2022-08-21T09:44:07.482Z,43.00
2022-08-21T09:46:34.905Z,46.70
2022-08-21T09:49:03.854Z,43.20
2022-08-21T09:51:36.271Z,42.80
2022-08-21T09:54:09.092Z,42.50
2022-08-21T09:57:26.409Z,43.80
2022-08-21T09:59:53.566Z,39.80
2022-08-21T10:02:29.749Z,33.60
2022-08-21T10:05:16.781Z,37.20
2022-08-21T10:07:43.934Z,37.50
2022-08-21T10:10:21.966Z,36.40
2022-08-21T10:13:16.129Z,40.50
2022-08-21T10:16:14.055Z,42.90
2022-08-21T10:18:47.376Z,44.70
2022-08-21T10:21:42.369Z,45.00
2022-08-21T10:24:30.988Z,46.70
2022-08-21T10:27:31.830Z,46.50
2022-08-21T10:30:19.286Z,45.20
2022-08-21T10:32:55.143Z,50.30
2022-08-21T10:35:40.736Z,43.70
2022-08-21T10:39:02.331Z,41.50
2022-08-21T10:42:06.094Z,43.20
2022-08-21T10:45:02.581Z,40.70
2022-08-21T10:47:48.854Z,39.50
2022-08-21T10:50:34.201Z,42.30
2022-08-21T10:53:07.218Z,40.00
2022-08-21T10:55:44.317Z,38.60
2022-08-21T10:58:54.213Z,36.40
2022-08-21T11:01:28.655Z,38.50
2022-08-21T11:04:07.732Z,34.40
2022-08-21T11:06:38.288Z,38.80
2022-08-21T11:09:18.336Z,35.80
2022-08-21T11:11:59.299Z,34.00
2022-08-21T11:14:49.898Z,30.10
2022-08-21T11:17:22.371Z,29.30
2022-08-21T11:20:06.853Z,29.20
2022-08-21T11:23:04.772Z,31.60
2022-08-21T11:25:45.172Z,27.10
2022-08-21T11:28:23.595Z,25.00
2022-08-21T11:31:03.792Z,24.50
2022-08-21T11:33:43.594Z,23.50
2022-08-21T11:36:25.539Z,25.20
2022-08-21T11:39:23.780Z,23.40
2022-08-21T11:41:55.410Z,21.10
2022-08-21T11:44:49.601Z,19.90
2022-08-21T11:47:42.766Z,18.90
2022-08-21T11:50:34.218Z,18.70
2022-08-21T11:53:11.448Z,16.60
2022-08-21T11:55:47.364Z,14.80
2022-08-21T11:58:26.765Z,15.10
2022-08-21T12:01:17.722Z,16.00
2022-08-21T12:04:01.018Z,18.20
2022-08-21T12:06:38.254Z,16.60
2022-08-21T12:09:09.339Z,17.90
2022-08-21T12:11:50.908Z,20.30
2022-08-21T12:14:20.343Z,19.70
2022-08-21T12:16:50.331Z,21.00
2022-08-21T12:19:26.430Z,22.70
2022-08-21T12:21:55.771Z,15.50
2022-08-21T12:24:28.341Z,18.60
2022-08-21T12:26:58.835Z,16.40
2022-08-21T12:29:34.182Z,16.20
2022-08-21T12:32:11.581Z,14.30
2022-08-21T12:34:49.832Z,15.70
2022-08-21T12:37:24.811Z,18.80
2022-08-21T12:39:55.455Z,15.40
2022-08-21T12:42:29.863Z,15.30
2022-08-21T12:45:05.211Z,14.70
2022-08-21T12:47:48.340Z,12.60
2022-08-21T12:50:37.805Z,12.60
2022-08-21T12:53:21.095Z,9.00
2022-08-21T12:55:48.183Z,9.50
2022-08-21T12:58:25.643Z,8.50
2022-08-21T13:00:56.826Z,8.40
2022-08-21T13:03:24.880Z,9.10
2022-08-21T13:05:52.979Z,10.90
2022-08-21T13:08:21.925Z,12.10
2022-08-21T13:10:56.487Z,13.00
2022-08-21T13:13:28.387Z,12.20
2022-08-21T13:16:01.583Z,10.60
2022-08-21T13:18:32.853Z,7.60
2022-08-21T13:21:15.344Z,10.50
2022-08-21T13:23:42.715Z,11.90
2022-08-21T13:26:18.915Z,9.90
2022-08-21T13:28:48.400Z,10.00
2022-08-21T13:31:22.982Z,8.60
2022-08-21T13:33:51.768Z,5.00
2022-08-21T13:36:40.531Z,5.00
2022-08-21T13:39:13.201Z,5.00
2022-08-21T13:41:43.180Z,5.90
2022-08-21T13:44:27.835Z,5.00
2022-08-21T13:46:55.708Z,5.00
2022-08-21T13:49:31.370Z,5.00
2022-08-21T13:51:58.481Z,5.00
2022-08-21T13:54:38.630Z,5.00
2022-08-21T13:57:16.425Z,5.00
2022-08-21T13:59:43.288Z,5.00
2022-08-21T14:02:20.213Z,5.00
2022-08-21T14:05:01.544Z,5.00
2022-08-21T14:07:35.179Z,5.00
2022-08-21T14:10:08.086Z,5.00
2022-08-21T14:12:49.428Z,5.00
2022-08-21T14:15:19.131Z,5.00
2022-08-21T14:17:47.734Z,5.00
2022-08-21T14:20:33.642Z,5.00
2022-08-21T14:23:01.211Z,5.00
2022-08-21T14:25:46.662Z,5.00
2022-08-21T14:28:27.954Z,5.00
2022-08-21T14:30:57.665Z,5.00
2022-08-21T14:33:28.819Z,5.00
2022-08-21T14:35:55.981Z,5.00
2022-08-21T14:38:25.726Z,5.00
2022-08-21T14:40:55.883Z,5.00
2022-08-21T14:43:22.903Z,5.00
2022-08-21T14:45:50.726Z,5.00
2022-08-21T14:48:17.566Z,5.00
2022-08-21T14:50:44.426Z,5.00
2022-08-21T14:53:11.674Z,5.00
2022-08-21T14:55:58.672Z,5.00
2022-08-21T14:58:26.281Z,5.00
2022-08-21T15:00:54.813Z,5.00
2022-08-21T15:03:22.923Z,5.00
2022-08-21T15:05:50.851Z,5.00
2022-08-21T15:08:18.472Z,5.00
2022-08-21T15:11:08.667Z,5.00
2022-08-21T15:13:33.556Z,5.00
2022-08-21T15:16:00.416Z,5.00
2022-08-21T15:18:29.759Z,5.00
2022-08-21T15:20:57.302Z,5.00
2022-08-21T15:23:24.313Z,5.00
2022-08-21T15:25:53.158Z,5.00
2022-08-21T15:28:21.328Z,5.00
2022-08-21T15:30:52.308Z,5.00
2022-08-21T15:33:20.094Z,5.00
2022-08-21T15:35:47.215Z,5.00
2022-08-21T15:38:15.389Z,5.00
2022-08-21T15:40:51.553Z,5.00
2022-08-21T15:43:32.580Z,5.00
2022-08-21T15:46:00.733Z,5.00
2022-08-21T15:48:27.709Z,5.00
2022-08-21T15:50:54.552Z,5.00
2022-08-21T15:53:21.371Z,5.00
2022-08-21T15:55:48.124Z,5.00
2022-08-21T15:58:16.962Z,5.00
2022-08-21T16:00:45.280Z,5.00
2022-08-21T16:03:17.571Z,5.00
2022-08-21T16:05:45.680Z,5.00
2022-08-21T16:08:12.609Z,5.00
2022-08-21T16:10:40.000Z,5.00
2022-08-21T16:13:13.045Z,5.00
2022-08-21T16:15:40.882Z,5.00
2022-08-21T16:18:07.826Z,5.00
2022-08-21T16:20:34.691Z,5.10
2022-08-21T16:23:01.733Z,5.80
2022-08-21T16:25:28.825Z,6.30
2022-08-21T16:28:01.163Z,6.40
2022-08-21T16:30:29.391Z,6.50
2022-08-21T16:32:56.886Z,8.60
2022-08-21T16:35:25.188Z,9.30
2022-08-21T16:37:53.525Z,10.30
2022-08-21T16:40:23.469Z,10.40
2022-08-21T16:42:50.537Z,11.40
2022-08-21T16:45:20.297Z,11.50
2022-08-21T16:47:47.770Z,13.40
2022-08-21T16:50:20.392Z,13.80
2022-08-21T16:52:47.231Z,13.50
2022-08-21T16:55:14.178Z,14.30
2022-08-21T16:57:41.304Z,15.20
2022-08-21T17:00:12.226Z,15.80
2022-08-21T17:02:44.928Z,16.70
2022-08-21T17:05:13.984Z,16.40
2022-08-21T17:07:42.677Z,17.50
2022-08-21T17:10:12.462Z,17.80
2022-08-21T17:12:40.367Z,17.20
2022-08-21T17:15:21.246Z,18.30
2022-08-21T17:17:49.274Z,18.30
2022-08-21T17:20:16.738Z,18.70
2022-08-21T17:22:43.656Z,18.70
2022-08-21T17:25:10.486Z,18.20
2022-08-21T17:27:37.732Z,18.70
2022-08-21T17:30:07.852Z,18.90
2022-08-21T17:32:34.728Z,19.40
2022-08-21T17:35:01.617Z,19.40
2022-08-21T17:37:29.477Z,19.40
2022-08-21T17:39:57.067Z,19.50
2022-08-21T17:42:25.274Z,19.70
2022-08-21T17:44:52.544Z,18.80
2022-08-21T17:47:19.590Z,20.30
2022-08-21T17:49:46.393Z,19.90
2022-08-21T17:52:13.306Z,20.90
2022-08-21T17:54:41.332Z,20.20
2022-08-21T17:57:13.055Z,21.00
2022-08-21T17:59:40.353Z,21.30
2022-08-21T18:02:09.867Z,21.30
2022-08-21T18:04:46.366Z,21.50
2022-08-21T18:07:13.152Z,20.80
2022-08-21T18:10:06.884Z,22.10
2022-08-21T18:12:34.838Z,22.00
2022-08-21T18:15:01.956Z,22.60
2022-08-21T18:17:30.398Z,22.70
2022-08-21T18:19:59.532Z,24.10
2022-08-21T18:22:26.981Z,24.00
2022-08-21T18:24:54.070Z,25.30
2022-08-21T18:27:24.658Z,24.70
2022-08-21T18:29:56.853Z,25.50
2022-08-21T18:32:31.720Z,26.10
2022-08-21T18:35:01.376Z,27.10
2022-08-21T18:37:29.003Z,27.60
2022-08-21T18:39:56.385Z,28.30
2022-08-21T18:42:28.771Z,28.50
2022-08-21T18:45:01.533Z,27.30
2022-08-21T18:47:39.634Z,28.20
2022-08-21T18:50:10.811Z,29.50
2022-08-21T18:52:39.153Z,29.10
2022-08-21T18:55:20.083Z,29.80
2022-08-21T18:57:47.511Z,29.90
2022-08-21T19:00:23.271Z,30.20
2022-08-21T19:02:51.786Z,31.80
2022-08-21T19:05:19.571Z,31.20
2022-08-21T19:07:47.083Z,32.30
2022-08-21T19:10:31.149Z,32.30
2022-08-21T19:12:59.853Z,32.10
2022-08-21T19:15:27.401Z,33.00
2022-08-21T19:17:55.847Z,32.70
2022-08-21T19:20:29.439Z,33.10
2022-08-21T19:22:56.966Z,33.30
2022-08-21T19:25:32.938Z,32.10
2022-08-21T19:28:21.243Z,32.40
2022-08-21T19:31:00.607Z,33.60
2022-08-21T19:33:35.782Z,34.10
2022-08-21T19:36:04.426Z,34.30
2022-08-21T19:38:31.299Z,35.20
2022-08-21T19:40:59.484Z,35.70
2022-08-21T19:43:26.505Z,35.90
2022-08-21T19:45:58.453Z,35.50
2022-08-21T19:48:26.900Z,35.80
2022-08-21T19:50:53.741Z,36.50
2022-08-21T19:53:20.832Z,36.80
2022-08-21T19:55:48.556Z,37.40
2022-08-21T19:58:36.688Z,37.30
2022-08-21T20:01:11.380Z,37.50
2022-08-21T20:03:44.556Z,37.10
2022-08-21T20:06:21.122Z,37.50
2022-08-21T20:08:51.866Z,38.30
2022-08-21T20:11:40.649Z,38.20
2022-08-21T20:14:09.052Z,38.10
2022-08-21T20:16:36.338Z,39.20
2022-08-21T20:19:05.215Z,39.50
2022-08-21T20:21:43.669Z,38.60
2022-08-21T20:24:15.018Z,38.90
2022-08-21T20:26:49.164Z,39.50
2022-08-21T20:29:24.504Z,39.70
2022-08-21T20:31:56.743Z,40.00
2022-08-21T20:34:23.593Z,40.80
2022-08-21T20:36:53.406Z,41.40
2022-08-21T20:39:20.392Z,42.20
2022-08-21T20:41:52.018Z,42.00
2022-08-21T20:44:18.876Z,41.80
2022-08-21T20:46:45.794Z,41.90
2022-08-21T20:49:19.736Z,42.30
2022-08-21T20:51:50.452Z,42.30
2022-08-21T20:54:53.482Z,43.20
2022-08-21T20:57:37.429Z,43.00
2022-08-21T21:00:08.539Z,43.50
2022-08-21T21:02:50.978Z,42.80
2022-08-21T21:05:23.668Z,43.30
2022-08-21T21:08:05.854Z,44.50
2022-08-21T21:10:59.727Z,43.80
2022-08-21T21:13:35.093Z,44.00
2022-08-21T21:16:07.568Z,43.80
2022-08-21T21:21:51.655Z,44.60
2022-08-21T21:24:27.711Z,45.30
2022-08-21T21:30:02.606Z,47.40
2022-08-21T21:32:29.571Z,47.10
2022-08-21T21:34:56.805Z,46.60
2022-08-21T21:37:36.949Z,46.70
2022-08-21T21:40:26.406Z,47.10
2022-08-21T21:43:20.055Z,46.40
2022-08-21T21:45:53.761Z,47.30
2022-08-21T21:48:45.650Z,46.30
2022-08-21T21:51:31.070Z,45.50
2022-08-21T21:54:14.033Z,45.60
2022-08-21T21:56:55.875Z,46.00
2022-08-21T21:59:42.003Z,46.60
2022-08-21T22:02:13.170Z,47.00
2022-08-21T22:05:07.817Z,46.80
2022-08-21T22:07:43.894Z,45.90
2022-08-21T22:10:30.320Z,46.00
2022-08-21T22:13:29.342Z,46.60
2022-08-21T22:16:02.901Z,46.70
2022-08-21T22:18:45.013Z,46.80
2022-08-21T22:24:15.489Z,47.60
2022-08-21T22:26:48.277Z,47.70
2022-08-21T22:29:18.677Z,48.80
2022-08-21T22:32:10.579Z,48.50
2022-08-21T22:34:39.109Z,47.70
2022-08-21T22:37:11.390Z,47.00
2022-08-21T22:39:44.625Z,46.60
2022-08-21T22:42:22.813Z,46.80
2022-08-21T22:44:57.021Z,48.30
2022-08-21T22:47:40.792Z,48.30
2022-08-21T22:50:28.675Z,46.80
2022-08-21T22:53:00.501Z,47.40
2022-08-21T22:55:37.617Z,47.60
2022-08-21T22:58:18.847Z,48.00
2022-08-21T23:01:08.438Z,48.70
2022-08-21T23:03:45.245Z,48.80
2022-08-21T23:06:34.821Z,49.90
2022-08-21T23:09:03.922Z,50.40
2022-08-21T23:11:42.641Z,51.50
2022-08-21T23:14:14.136Z,52.60
2022-08-21T23:17:01.199Z,52.70
2022-08-21T23:19:43.811Z,53.10
2022-08-21T23:22:55.545Z,52.80
2022-08-21T23:25:42.147Z,53.20
2022-08-21T23:28:31.780Z,52.40
2022-08-21T23:31:10.755Z,53.70
2022-08-21T23:33:40.594Z,53.50
2022-08-21T23:36:32.025Z,54.60
2022-08-21T23:39:15.702Z,55.20
2022-08-21T23:42:06.245Z,55.80
2022-08-21T23:45:14.013Z,55.80
2022-08-21T23:48:06.593Z,55.40
2022-08-21T23:50:55.143Z,55.80
2022-08-21T23:53:33.753Z,57.20
2022-08-21T23:56:11.360Z,59.50
2022-08-21T23:59:08.081Z,60.60
